Terminal Aerodrome Forecast
Issued by NWS Twin Cities, MN

Home | Current Version | Previous Version | Text Only | Print | Product List | Glossary On
Versions: 1 2 3 4 5 6 7 8 9 10 11 12 13 14 15 16 17 18 19
443
FTUS43 KMPX 282346
TAFEAU
TAF
KEAU 282346Z 2900/2924 20005KT P6SM -TSRA BKN060CB
     FM290100 20004KT P6SM VCTS BKN090CB
     FM290300 19004KT P6SM VCSH OVC050
     FM290900 VRB03KT 3SM BR OVC010
     FM291200 28008KT P6SM OVC015
     FM291900 28011KT P6SM VCSH BKN035
     FM292300 27009KT P6SM SCT200=

USA.gov is the U.S. government's official web portal to all federal, state and local government web resources and services.